Time;durP1;ratioP1;P1;durP2;ratioP2;P2;SDS_P1;SDS_P2;PMS_P1;PMS_P2;Temp;Humidity;BMP_temperature;BMP_pressure;BME280_temperature;BME280_humidity;BME280_pressure;Samples;Min_cycle;Max_cycle;Signal;HPM_P1;HPM_P2
2022/09/17 00:00:16;;;;;;;11.00;6.30;;;;;;;14.52;62.80;98020.51;238396;1191;143063;-57
2022/09/17 00:05:39;;;;;;;13.40;6.90;;;;;;;14.46;62.81;98022.33;238750;1191;139352;-57
2022/09/17 00:10:43;;;;;;;12.50;6.80;;;;;;;14.42;63.00;98024.11;238412;1190;139544;-57
2022/09/17 00:15:46;;;;;;;9.40;6.40;;;;;;;14.40;62.96;98020.20;238612;1191;140179;-57
2022/09/17 00:20:49;;;;;;;13.10;7.00;;;;;;;14.33;62.85;98017.81;238588;1191;139396;-58
2022/09/17 00:25:52;;;;;;;13.80;6.70;;;;;;;14.25;63.03;98019.84;238638;1191;139268;-57
2022/09/17 00:30:55;;;;;;;13.30;6.20;;;;;;;14.23;63.10;98015.25;238641;1190;140060;-57
2022/09/17 00:36:00;;;;;;;9.70;5.80;;;;;;;14.25;63.15;98014.34;238740;1191;139578;-58
2022/09/17 00:41:04;;;;;;;11.20;6.30;;;;;;;14.24;63.16;98015.97;238568;1191;139227;-57
2022/09/17 00:46:27;;;;;;;12.90;6.70;;;;;;;14.24;63.33;98016.21;238724;1191;139263;-58
2022/09/17 00:51:38;;;;;;;12.30;6.90;;;;;;;14.21;63.26;98016.61;238603;1191;139506;-58
2022/09/17 00:56:42;;;;;;;10.10;6.50;;;;;;;14.16;63.27;98017.30;238628;1190;139024;-59
2022/09/17 01:01:45;;;;;;;11.70;6.70;;;;;;;14.11;63.39;98013.25;238787;1191;139433;-59
2022/09/17 01:06:53;;;;;;;12.50;6.30;;;;;;;14.06;63.39;98011.80;238674;1191;141132;-59
2022/09/17 01:12:22;;;;;;;10.00;5.50;;;;;;;14.05;63.39;98007.55;238817;1191;140119;-59
2022/09/17 01:17:39;;;;;;;9.80;6.00;;;;;;;14.07;63.38;98007.25;238883;1190;139781;-59
2022/09/17 01:23:06;;;;;;;11.60;6.30;;;;;;;14.08;63.48;98005.86;238778;1190;138631;-58
2022/09/17 01:28:11;;;;;;;10.30;6.20;;;;;;;14.13;63.75;98005.79;238379;1191;140468;-58
2022/09/17 01:33:22;;;;;;;;;;;;;;;14.11;63.50;98005.82;238569;1192;139098;-58
2022/09/17 01:38:33;;;;;;;14.40;5.90;;;;;;;14.02;63.30;98009.00;238943;1190;125674;-57
2022/09/17 01:44:05;;;;;;;12.10;6.20;;;;;;;13.94;63.37;98008.38;237923;1190;141741;-58
2022/09/17 01:49:10;;;;;;;9.00;5.40;;;;;;;13.88;63.51;98011.66;238566;1192;139710;-59
2022/09/17 01:54:27;;;;;;;11.70;5.50;;;;;;;13.81;63.42;98017.16;238765;1191;139218;-58
2022/09/17 01:59:38;;;;;;;11.00;5.30;;;;;;;13.81;63.53;98015.90;238899;1190;140088;-59
2022/09/17 02:04:59;;;;;;;9.70;5.20;;;;;;;13.83;63.64;98014.48;238567;1191;139509;-57
2022/09/17 02:10:12;;;;;;;7.60;5.80;;;;;;;13.85;63.68;98011.08;238754;1190;139628;-58
2022/09/17 02:15:22;;;;;;;11.50;5.50;;;;;;;13.85;63.67;98012.46;238701;1192;139149;-57
2022/09/17 02:20:38;;;;;;;9.40;5.10;;;;;;;13.82;63.54;98011.84;238761;1190;138977;-57
2022/09/17 02:25:49;;;;;;;8.30;5.20;;;;;;;13.79;63.48;98012.35;238822;1192;139661;-58
2022/09/17 02:30:53;;;;;;;11.50;5.00;;;;;;;13.71;63.42;98013.05;238376;1192;138853;-57
2022/09/17 02:35:56;;;;;;;6.60;4.50;;;;;;;13.65;63.69;98021.60;238651;1192;139269;-57
2022/09/17 02:41:19;;;;;;;9.10;4.60;;;;;;;13.68;63.60;98025.80;238653;1191;140612;-57
2022/09/17 02:46:40;;;;;;;8.60;5.10;;;;;;;13.71;63.77;98022.27;238610;1192;139318;-57
2022/09/17 02:51:49;;;;;;;8.80;5.20;;;;;;;13.73;63.52;98022.48;238728;1191;139066;-58
2022/09/17 02:57:26;;;;;;;7.10;5.10;;;;;;;13.75;63.92;98024.95;238689;1190;141331;-58
2022/09/17 03:02:42;;;;;;;11.20;5.80;;;;;;;13.74;63.50;98012.23;238596;1192;139148;-59
2022/09/17 03:07:45;;;;;;;;;;;;;;;13.66;63.48;98000.64;238527;1190;139888;-59
2022/09/17 03:12:48;;;;;;;8.00;5.50;;;;;;;13.61;63.37;98002.80;238931;1190;125369;-58
2022/09/17 03:17:51;;;;;;;7.50;5.30;;;;;;;13.53;63.46;97999.02;238777;1191;139450;-57
2022/09/17 03:22:55;;;;;;;6.50;5.00;;;;;;;13.48;63.67;97987.48;238421;1192;139238;-57
2022/09/17 03:27:58;;;;;;;7.90;5.00;;;;;;;13.49;63.51;97978.54;238723;1191;140098;-58
2022/09/17 03:33:01;;;;;;;7.90;5.20;;;;;;;13.55;63.75;97978.70;238677;1191;141168;-58
2022/09/17 03:38:04;;;;;;;10.70;5.70;;;;;;;13.58;63.76;97976.95;238597;1190;140065;-58
2022/09/17 03:43:07;;;;;;;8.70;5.10;;;;;;;13.55;63.55;97980.09;238384;1190;142557;-58
2022/09/17 03:48:10;;;;;;;7.60;5.20;;;;;;;13.50;63.78;97974.31;238240;1192;139696;-58
2022/09/17 03:53:14;;;;;;;6.10;4.70;;;;;;;13.46;63.67;97968.45;238528;1191;139768;-57
2022/09/17 03:58:17;;;;;;;9.20;4.70;;;;;;;13.42;63.59;97966.72;238720;1191;139416;-57
2022/09/17 04:03:20;;;;;;;7.80;5.20;;;;;;;13.38;63.77;97964.95;238256;1192;139112;-58
2022/09/17 04:08:23;;;;;;;8.40;5.30;;;;;;;13.34;63.85;97962.80;238511;1192;139042;-58
2022/09/17 04:13:26;;;;;;;8.10;5.50;;;;;;;13.35;63.75;97965.88;238613;1190;141303;-57
2022/09/17 04:18:29;;;;;;;7.10;5.00;;;;;;;13.39;63.83;97965.39;238580;1191;139889;-58
2022/09/17 04:23:32;;;;;;;9.20;5.40;;;;;;;13.39;63.87;97959.13;238735;1192;139621;-56
2022/09/17 04:28:35;;;;;;;9.40;5.40;;;;;;;13.38;63.74;97958.52;238545;1191;139168;-58
2022/09/17 04:33:38;;;;;;;15.40;5.00;;;;;;;13.36;63.97;97953.72;238618;1191;139603;-58
2022/09/17 04:38:41;;;;;;;6.70;5.00;;;;;;;13.36;63.88;97959.40;238631;1191;140193;-57
2022/09/17 04:43:44;;;;;;;8.10;5.40;;;;;;;13.35;64.07;97972.67;237976;1192;140637;-58
2022/09/17 04:48:48;;;;;;;10.00;5.10;;;;;;;13.34;64.09;97972.39;238365;1192;139046;-57
2022/09/17 04:53:51;;;;;;;8.90;4.60;;;;;;;13.40;64.42;97976.67;238616;1192;139739;-58
2022/09/17 04:58:54;;;;;;;10.60;5.10;;;;;;;13.51;64.39;97980.11;238752;1190;140386;-58
2022/09/17 05:03:57;;;;;;;11.00;5.00;;;;;;;13.56;64.29;97976.66;238520;1191;139151;-58
2022/09/17 05:09:01;;;;;;;9.80;5.30;;;;;;;13.53;64.11;97969.30;238500;1192;139814;-56
2022/09/17 05:14:03;;;;;;;8.30;5.30;;;;;;;13.54;64.38;97963.32;238695;1191;140375;-58
2022/09/17 05:19:07;;;;;;;7.70;4.30;;;;;;;13.59;64.14;97953.92;238745;1190;139637;-58
2022/09/17 05:24:10;;;;;;;8.00;4.50;;;;;;;13.60;64.24;97954.14;238849;1192;139515;-57
2022/09/17 05:29:13;;;;;;;7.00;4.40;;;;;;;13.58;64.10;97958.59;238658;1192;139557;-57
2022/09/17 05:34:15;;;;;;;8.80;4.50;;;;;;;13.66;64.26;97958.31;238788;1191;140113;-57
2022/09/17 05:39:21;;;;;;;8.80;4.20;;;;;;;13.78;64.54;97960.52;238794;1190;140068;-56
2022/09/17 05:44:24;;;;;;;6.00;4.10;;;;;;;13.89;64.37;97953.41;238683;1190;141920;-58
2022/09/17 05:49:27;;;;;;;9.70;4.30;;;;;;;14.00;64.32;97942.42;238676;1191;139849;-57
2022/09/17 05:54:30;;;;;;;7.70;4.10;;;;;;;14.05;64.01;97949.31;238606;1192;138989;-58
2022/09/17 05:59:34;;;;;;;6.20;4.30;;;;;;;14.03;63.91;97966.42;238622;1192;139960;-57
2022/09/17 06:04:37;;;;;;;8.80;4.00;;;;;;;14.04;63.97;97977.63;238706;1192;139723;-57
2022/09/17 06:09:40;;;;;;;10.10;4.80;;;;;;;14.06;63.93;97971.33;238467;1192;139269;-58
2022/09/17 06:14:43;;;;;;;5.10;3.80;;;;;;;14.10;63.85;97977.39;238560;1192;140561;-58
2022/09/17 06:19:46;;;;;;;5.30;3.40;;;;;;;14.15;63.69;97972.95;238412;1191;139832;-58
2022/09/17 06:24:49;;;;;;;6.20;3.40;;;;;;;14.20;63.67;97962.33;238576;1191;139150;-58
2022/09/17 06:29:52;;;;;;;3.90;3.50;;;;;;;14.29;63.66;97958.46;238737;1191;139741;-58
2022/09/17 06:34:56;;;;;;;4.10;3.30;;;;;;;14.40;63.58;97958.96;238533;1192;139184;-58
2022/09/17 06:40:00;;;;;;;9.10;3.10;;;;;;;14.48;63.50;97954.52;238497;1191;139365;-57
2022/09/17 06:45:04;;;;;;;8.10;2.90;;;;;;;14.51;63.30;97969.60;238665;1190;139631;-60
2022/09/17 06:50:12;;;;;;;5.20;3.30;;;;;;;14.54;63.04;97962.38;238838;1190;138968;-58
2022/09/17 06:55:15;;;;;;;4.20;2.90;;;;;;;14.55;62.65;97958.50;238599;1191;139038;-58
2022/09/17 07:00:18;;;;;;;3.50;2.80;;;;;;;14.54;62.62;97962.30;238615;1192;139758;-58
2022/09/17 07:05:22;;;;;;;4.80;2.90;;;;;;;14.47;62.47;97976.05;238793;1190;139829;-57
2022/09/17 07:10:25;;;;;;;4.70;2.70;;;;;;;14.41;62.31;97964.91;238800;1190;139390;-58
2022/09/17 07:15:29;;;;;;;4.50;2.50;;;;;;;14.41;62.41;97959.42;238653;1190;138865;-57
2022/09/17 07:20:31;;;;;;;4.60;2.40;;;;;;;14.45;62.23;97964.56;238495;1191;139401;-58
2022/09/17 07:25:34;;;;;;;4.20;2.50;;;;;;;14.50;62.14;97960.77;238811;1190;139843;-58
2022/09/17 07:30:37;;;;;;;3.60;2.30;;;;;;;14.53;62.22;97968.28;238766;1190;139514;-58
2022/09/17 07:35:40;;;;;;;3.80;2.50;;;;;;;14.59;62.30;97974.15;238699;1191;138862;-57
2022/09/17 07:40:43;;;;;;;4.90;2.80;;;;;;;14.59;61.85;97984.34;238553;1191;139619;-58
2022/09/17 07:45:46;;;;;;;4.30;2.60;;;;;;;14.60;62.07;97994.08;238593;1191;141036;-59
2022/09/17 07:50:49;;;;;;;3.90;2.80;;;;;;;14.63;61.97;98016.24;238651;1190;139662;-58
2022/09/17 07:55:57;;;;;;;5.80;2.90;;;;;;;14.63;61.77;98016.78;238435;1191;138994;-58
2022/09/17 08:01:01;;;;;;;3.70;2.50;;;;;;;14.68;61.81;98012.60;238429;1192;251751;-59
2022/09/17 08:06:10;;;;;;;4.20;2.60;;;;;;;14.65;61.63;98010.86;238722;1190;139374;-58
2022/09/17 08:11:16;;;;;;;4.90;2.40;;;;;;;14.65;61.66;98014.52;238868;1190;139631;-57
2022/09/17 08:16:39;;;;;;;6.10;2.40;;;;;;;14.65;61.48;98006.04;238504;1190;139071;-58
2022/09/17 08:21:42;;;;;;;3.60;2.60;;;;;;;14.65;61.39;97994.83;238315;1192;140567;-58
2022/09/17 08:26:45;;;;;;;3.20;2.40;;;;;;;14.67;61.33;97991.27;238510;1190;140185;-58
2022/09/17 08:31:48;;;;;;;4.60;2.40;;;;;;;14.73;61.25;97997.19;238676;1190;140357;-57
2022/09/17 08:36:51;;;;;;;4.10;2.40;;;;;;;14.77;61.09;97993.65;238423;1190;139794;-58
2022/09/17 08:42:06;;;;;;;6.00;2.00;;;;;;;14.87;61.20;97989.81;238716;1191;140088;-58
2022/09/17 08:47:19;;;;;;;5.30;2.30;;;;;;;14.99;61.16;97995.55;238715;1190;141416;-58
2022/09/17 08:52:40;;;;;;;4.00;2.20;;;;;;;15.07;60.74;97991.17;238649;1190;239662;-58
2022/09/17 08:57:59;;;;;;;4.00;2.00;;;;;;;15.12;60.70;97988.15;238498;1190;139434;-58
2022/09/17 09:03:39;;;;;;;4.10;2.00;;;;;;;15.16;60.38;97993.09;238537;1191;139705;-58
2022/09/17 09:08:56;;;;;;;3.80;2.00;;;;;;;15.22;60.43;97976.07;238551;1190;139310;-59
2022/09/17 09:14:20;;;;;;;5.60;3.30;;;;;;;15.31;60.31;97976.98;238534;1191;139293;-57
2022/09/17 09:19:30;;;;;;;3.80;1.80;;;;;;;15.35;60.15;97968.52;238525;1192;139333;-58
2022/09/17 09:24:36;;;;;;;4.50;2.20;;;;;;;15.39;59.67;97963.64;238409;1191;139289;-58
2022/09/17 09:30:05;;;;;;;4.20;2.20;;;;;;;15.43;59.40;97955.98;238698;1190;139101;-58
2022/09/17 09:35:17;;;;;;;4.00;1.70;;;;;;;15.46;59.28;97972.13;238563;1190;140197;-56
2022/09/17 09:40:29;;;;;;;7.20;3.50;;;;;;;15.47;59.21;97979.52;238384;1191;139917;-58
2022/09/17 09:45:46;;;;;;;6.30;2.00;;;;;;;15.56;59.22;97990.57;238315;1192;139297;-59
2022/09/17 09:50:58;;;;;;;2.90;1.80;;;;;;;15.60;59.04;97987.20;238681;1190;139462;-58
2022/09/17 09:56:31;;;;;;;5.80;2.00;;;;;;;15.67;58.75;97992.94;238726;1190;139542;-57
2022/09/17 10:01:39;;;;;;;13.00;8.90;;;;;;;15.72;58.69;97988.20;238432;1191;140259;-58
2022/09/17 10:06:42;;;;;;;2.80;1.70;;;;;;;15.78;58.42;97991.98;238414;1190;139839;-58
2022/09/17 10:12:09;;;;;;;4.90;2.00;;;;;;;15.89;58.22;97998.05;238838;1190;139833;-58
2022/09/17 10:17:23;;;;;;;50.40;33.20;;;;;;;15.98;58.32;97994.52;238473;1190;141147;-58
2022/09/17 10:22:32;;;;;;;5.30;2.70;;;;;;;16.08;58.00;97998.34;238410;1192;139391;-57
2022/09/17 10:27:35;;;;;;;6.00;2.70;;;;;;;16.25;57.79;97994.02;238459;1190;139189;-58
2022/09/17 10:32:38;;;;;;;2.90;1.90;;;;;;;16.44;57.51;97987.16;238550;1190;139508;-59
2022/09/17 10:37:45;;;;;;;4.50;1.60;;;;;;;16.65;57.35;97988.16;238480;1190;139596;-59
2022/09/17 10:43:09;;;;;;;2.80;1.50;;;;;;;16.75;56.48;97992.10;238452;1191;139863;-58
2022/09/17 10:48:21;;;;;;;3.10;1.50;;;;;;;16.78;56.14;97992.23;238549;1191;139247;-58
2022/09/17 10:53:25;;;;;;;2.10;1.60;;;;;;;16.84;55.92;97994.83;238844;1190;139071;-58
2022/09/17 10:59:07;;;;;;;4.20;1.70;;;;;;;16.91;55.88;97989.36;238484;1190;140065;-56
2022/09/17 11:04:25;;;;;;;2.10;1.20;;;;;;;16.99;55.20;97982.34;237068;1195;139505;-59
2022/09/17 11:09:56;;;;;;;7.80;1.80;;;;;;;17.03;55.31;97975.97;238285;1190;139631;-58
2022/09/17 11:15:41;;;;;;;4.10;1.80;;;;;;;17.01;55.10;97984.94;238329;1191;139017;-58
2022/09/17 11:21:21;;;;;;;3.10;1.40;;;;;;;16.87;54.71;97997.70;238593;1190;138678;-59
2022/09/17 11:26:46;;;;;;;4.60;1.40;;;;;;;16.72;54.76;98001.61;238625;1190;139364;-57
2022/09/17 11:32:01;;;;;;;5.60;1.60;;;;;;;16.61;55.01;98004.92;238209;1192;139321;-57
2022/09/17 11:37:10;;;;;;;3.80;1.50;;;;;;;16.50;54.96;98012.07;238554;1191;140131;-58
2022/09/17 11:42:27;;;;;;;4.00;1.60;;;;;;;16.39;55.35;98012.92;238535;1191;140165;-58
2022/09/17 11:47:34;;;;;;;2.80;2.10;;;;;;;16.29;55.54;98010.83;238452;1191;139794;-58
2022/09/17 11:52:59;;;;;;;2.60;1.50;;;;;;;16.18;55.70;98016.85;238323;1191;139381;-58
2022/09/17 11:58:12;;;;;;;2.90;1.70;;;;;;;16.01;55.81;98024.81;238451;1190;140083;-58
2022/09/17 12:03:29;;;;;;;6.70;2.10;;;;;;;15.85;56.01;98021.19;238689;1190;139333;-59
2022/09/17 12:08:47;;;;;;;3.10;2.00;;;;;;;15.77;56.19;98012.36;238696;1190;139372;-58
2022/09/17 12:13:54;;;;;;;5.50;2.50;;;;;;;15.74;56.34;98004.09;238525;1191;139715;-58
2022/09/17 12:19:22;;;;;;;6.30;1.90;;;;;;;15.72;56.37;97999.38;238411;1191;139700;-58
2022/09/17 12:24:29;;;;;;;4.90;2.00;;;;;;;15.74;56.33;97988.66;238592;1190;139525;-58
2022/09/17 12:30:05;;;;;;;4.70;2.00;;;;;;;15.70;56.33;97979.47;238702;1190;139119;-58
2022/09/17 12:35:11;;;;;;;3.90;2.20;;;;;;;15.68;56.18;97978.00;238405;1192;139539;-58
2022/09/17 12:40:37;;;;;;;3.80;2.20;;;;;;;15.64;56.39;97971.44;238374;1191;139888;-57
2022/09/17 12:46:08;;;;;;;3.60;2.10;;;;;;;15.58;56.31;97958.91;238542;1190;138967;-57
2022/09/17 12:51:33;;;;;;;5.50;2.30;;;;;;;15.59;56.37;97937.73;238488;1191;139282;-58
2022/09/17 12:56:59;;;;;;;6.80;2.50;;;;;;;15.62;56.18;97943.52;238609;1190;139210;-57
2022/09/17 13:02:20;;;;;;;6.50;4.10;;;;;;;15.65;56.34;97942.34;238520;1191;140006;-57
2022/09/17 13:07:41;;;;;;;5.70;2.60;;;;;;;15.67;56.33;97928.73;238601;1191;139183;-57
2022/09/17 13:12:51;;;;;;;3.60;2.20;;;;;;;15.72;56.47;97922.38;238653;1190;139580;-57
2022/09/17 13:18:13;;;;;;;6.30;2.50;;;;;;;15.71;56.59;97923.17;238596;1190;138858;-58
2022/09/17 13:23:40;;;;;;;4.30;2.60;;;;;;;15.73;56.64;97929.91;238692;1190;139020;-57
2022/09/17 13:28:45;;;;;;;4.00;2.30;;;;;;;15.72;56.62;97925.36;238531;1192;139225;-58
2022/09/17 13:33:51;;;;;;;5.20;2.60;;;;;;;15.77;56.74;97921.45;238718;1190;139653;-58
2022/09/17 13:38:54;;;;;;;4.30;2.60;;;;;;;15.80;56.82;97926.19;238607;1190;138705;-57
2022/09/17 13:43:59;;;;;;;3.50;2.30;;;;;;;15.84;56.86;97930.95;238695;1191;139153;-58
2022/09/17 13:49:12;;;;;;;5.00;2.80;;;;;;;15.88;56.72;97943.13;238499;1191;140091;-58
2022/09/17 13:54:18;;;;;;;5.10;2.10;;;;;;;15.81;56.56;97936.61;238827;1190;138753;-58
2022/09/17 13:59:26;;;;;;;5.10;2.50;;;;;;;15.72;56.48;97920.69;238703;1190;139139;-58
2022/09/17 14:04:40;;;;;;;4.30;2.20;;;;;;;15.67;56.66;97917.35;238476;1191;139103;-57
2022/09/17 14:09:51;;;;;;;4.90;2.40;;;;;;;15.66;56.94;97916.14;238484;1191;139223;-57
2022/09/17 14:14:54;;;;;;;3.00;2.00;;;;;;;15.68;57.01;97914.91;238668;1190;139211;-57
2022/09/17 14:19:57;;;;;;;5.10;1.80;;;;;;;15.67;56.81;97895.33;238693;1190;139230;-57
2022/09/17 14:25:00;;;;;;;3.80;2.10;;;;;;;15.65;56.73;97875.85;238563;1190;139336;-57
2022/09/17 14:30:20;;;;;;;4.00;2.30;;;;;;;15.69;56.95;97884.64;238718;1191;139166;-57
2022/09/17 14:35:34;;;;;;;5.60;2.30;;;;;;;15.66;56.89;97891.50;238706;1190;139240;-56
2022/09/17 14:40:44;;;;;;;4.40;2.50;;;;;;;15.63;57.07;97894.63;238649;1190;139074;-57
2022/09/17 14:45:50;;;;;;;3.20;2.20;;;;;;;15.65;57.23;97884.10;238501;1191;139345;-57
2022/09/17 14:51:16;;;;;;;5.50;2.60;;;;;;;15.65;57.29;97891.89;238472;1190;139088;-57
2022/09/17 14:56:21;;;;;;;4.40;2.70;;;;;;;15.66;57.34;97900.24;238512;1190;139118;-58
2022/09/17 15:01:26;;;;;;;6.10;2.80;;;;;;;15.66;57.28;97906.33;238417;1190;138968;-57
2022/09/17 15:06:30;;;;;;;4.60;2.60;;;;;;;15.69;57.43;97904.05;238715;1190;139171;-58
2022/09/17 15:11:39;;;;;;;5.70;2.40;;;;;;;15.73;57.48;97894.51;238803;1190;139039;-58
2022/09/17 15:16:57;;;;;;;6.30;2.50;;;;;;;15.75;57.33;97883.23;238656;1191;139331;-57
2022/09/17 15:22:20;;;;;;;3.60;2.50;;;;;;;15.75;57.34;97863.90;238667;1191;139970;-58
2022/09/17 15:27:38;;;;;;;5.30;2.20;;;;;;;15.75;57.44;97864.09;238665;1190;139684;-58
2022/09/17 15:32:47;;;;;;;4.10;2.40;;;;;;;15.82;57.52;97870.91;238595;1190;139881;-56
2022/09/17 15:38:03;;;;;;;4.70;2.20;;;;;;;15.83;57.52;97868.64;238540;1191;139169;-57
2022/09/17 15:43:37;;;;;;;3.60;2.60;;;;;;;15.80;57.38;97869.66;238532;1190;138756;-57
2022/09/17 15:48:40;;;;;;;4.90;2.70;;;;;;;15.76;57.33;97875.73;238618;1190;140021;-57
2022/09/17 15:53:54;;;;;;;5.20;2.50;;;;;;;15.73;57.36;97884.50;238769;1190;139408;-56
2022/09/17 15:59:00;;;;;;;2.80;2.20;;;;;;;15.72;57.46;97888.52;238570;1191;140993;-59
2022/09/17 16:04:39;;;;;;;6.10;2.40;;;;;;;15.69;57.54;97896.73;238640;1191;141600;-60
2022/09/17 16:09:50;;;;;;;4.80;2.60;;;;;;;15.67;57.35;97904.14;237543;1192;139400;-57
2022/09/17 16:14:55;;;;;;;4.50;2.90;;;;;;;15.64;57.35;97903.46;238486;1190;142461;-57
2022/09/17 16:20:04;;;;;;;5.90;3.00;;;;;;;15.60;57.44;97905.09;238659;1191;139822;-57
2022/09/17 16:25:09;;;;;;;6.20;3.20;;;;;;;15.59;57.49;97908.96;238721;1190;139025;-57
2022/09/17 16:30:15;;;;;;;14.20;3.20;;;;;;;15.57;57.65;97910.96;238790;1190;139921;-58
2022/09/17 16:35:21;;;;;;;6.10;3.20;;;;;;;15.55;57.62;97907.92;238728;1190;139713;-57
2022/09/17 16:40:26;;;;;;;6.00;3.00;;;;;;;15.56;57.86;97905.34;238661;1190;141320;-57
2022/09/17 16:45:30;;;;;;;7.70;3.80;;;;;;;15.53;57.82;97907.40;238657;1190;138753;-57
2022/09/17 16:50:34;;;;;;;6.40;3.30;;;;;;;15.50;57.85;97900.08;238728;1190;139208;-57
2022/09/17 16:55:37;;;;;;;5.60;3.90;;;;;;;15.50;57.88;97892.39;238508;1190;140402;-58
2022/09/17 17:00:43;;;;;;;8.00;3.90;;;;;;;15.46;58.13;97893.84;238552;1190;139189;-57
2022/09/17 17:05:46;;;;;;;7.10;4.20;;;;;;;15.44;58.16;97895.86;238719;1190;139405;-56
2022/09/17 17:10:49;;;;;;;9.00;3.70;;;;;;;15.44;58.22;97891.90;238673;1190;139661;-57
2022/09/17 17:15:52;;;;;;;6.70;4.30;;;;;;;15.48;58.40;97878.48;238701;1190;139740;-57
2022/09/17 17:20:55;;;;;;;6.70;3.90;;;;;;;15.51;58.73;97869.74;238601;1190;138971;-57
2022/09/17 17:25:58;;;;;;;9.80;4.40;;;;;;;15.51;58.65;97870.14;238647;1190;139195;-57
2022/09/17 17:31:03;;;;;;;7.60;4.20;;;;;;;15.51;58.79;97870.61;238715;1190;139498;-57
2022/09/17 17:36:06;;;;;;;8.40;4.00;;;;;;;15.48;58.61;97873.27;238759;1190;139113;-58
2022/09/17 17:41:13;;;;;;;8.10;4.60;;;;;;;15.41;58.81;97870.73;238631;1190;139596;-58
2022/09/17 17:46:16;;;;;;;7.50;4.50;;;;;;;15.36;58.92;97871.91;238676;1190;139735;-57
2022/09/17 17:51:26;;;;;;;7.00;4.30;;;;;;;15.33;59.07;97871.17;238756;1192;138977;-56
2022/09/17 17:56:29;;;;;;;7.00;4.30;;;;;;;15.28;59.12;97870.23;238578;1190;141348;-56
2022/09/17 18:01:36;;;;;;;9.00;4.50;;;;;;;15.23;59.09;97871.00;238399;1192;140057;-57
2022/09/17 18:06:39;;;;;;;7.20;4.40;;;;;;;15.18;59.07;97868.58;238408;1190;139481;-58
2022/09/17 18:11:42;;;;;;;7.20;4.20;;;;;;;15.13;59.26;97872.45;238662;1192;138894;-57
2022/09/17 18:16:46;;;;;;;8.20;3.90;;;;;;;15.09;59.40;97880.02;238626;1190;139859;-57
2022/09/17 18:21:49;;;;;;;8.70;4.50;;;;;;;15.09;59.41;97878.98;238415;1192;141484;-56
2022/09/17 18:26:52;;;;;;;7.30;4.50;;;;;;;15.14;59.57;97876.89;238543;1192;139701;-57
2022/09/17 18:31:55;;;;;;;10.60;4.80;;;;;;;15.20;59.59;97879.78;238436;1192;139397;-59
2022/09/17 18:36:58;;;;;;;7.90;5.10;;;;;;;15.19;59.68;97873.98;238411;1191;138857;-59
2022/09/17 18:42:01;;;;;;;9.40;5.30;;;;;;;15.17;59.85;97867.63;238513;1192;139284;-58
2022/09/17 18:47:04;;;;;;;8.20;5.20;;;;;;;15.13;59.69;97880.31;238434;1191;139749;-59
2022/09/17 18:52:07;;;;;;;7.90;5.30;;;;;;;15.09;59.94;97892.52;238461;1191;139272;-58
2022/09/17 18:57:11;;;;;;;11.30;5.60;;;;;;;15.04;59.92;97903.35;238541;1191;139464;-58
2022/09/17 19:02:14;;;;;;;11.00;7.00;;;;;;;14.98;60.15;97910.04;238425;1191;141170;-58
2022/09/17 19:07:18;;;;;;;10.00;6.60;;;;;;;14.96;60.25;97899.36;238330;1192;139517;-56
2022/09/17 19:12:20;;;;;;;9.50;6.00;;;;;;;14.94;60.41;97892.98;238628;1190;139541;-58
2022/09/17 19:17:24;;;;;;;11.10;5.50;;;;;;;14.95;60.67;97884.80;238640;1190;139272;-57
2022/09/17 19:22:26;;;;;;;11.20;6.50;;;;;;;14.97;60.58;97879.25;238321;1192;139020;-60
2022/09/17 19:27:30;;;;;;;10.00;6.30;;;;;;;14.96;60.64;97870.22;238379;1192;139312;-57
2022/09/17 19:32:33;;;;;;;9.70;6.60;;;;;;;14.93;60.73;97870.67;238522;1191;139341;-59
2022/09/17 19:37:36;;;;;;;10.00;6.00;;;;;;;14.89;60.67;97868.86;238338;1190;139608;-57
2022/09/17 19:42:39;;;;;;;9.10;5.60;;;;;;;14.88;60.69;97874.61;238683;1190;139479;-60
2022/09/17 19:47:42;;;;;;;8.60;5.80;;;;;;;14.87;60.92;97874.30;238719;1190;139406;-59
2022/09/17 19:52:45;;;;;;;7.40;5.40;;;;;;;14.87;60.65;97872.36;238535;1191;139207;-56
2022/09/17 19:57:48;;;;;;;8.70;5.10;;;;;;;14.83;60.80;97870.39;238258;1190;139188;-55
2022/09/17 20:02:51;;;;;;;8.90;5.20;;;;;;;14.82;60.62;97866.23;238749;1190;139735;-55
2022/09/17 20:07:54;;;;;;;9.40;5.60;;;;;;;14.84;60.82;97862.79;238872;1190;139662;-55
2022/09/17 20:12:57;;;;;;;7.00;5.40;;;;;;;14.84;60.97;97874.44;238634;1191;139314;-55
2022/09/17 20:18:02;;;;;;;10.10;6.20;;;;;;;14.83;61.03;97877.93;238687;1191;139502;-57
2022/09/17 20:23:05;;;;;;;9.40;6.50;;;;;;;14.83;60.95;97878.79;238664;1190;139052;-57
2022/09/17 20:28:08;;;;;;;11.70;6.90;;;;;;;14.82;61.16;97870.39;238693;1192;139332;-60
2022/09/17 20:33:12;;;;;;;12.30;7.50;;;;;;;14.82;61.05;97864.83;238464;1192;139706;-60
2022/09/17 20:38:15;;;;;;;11.40;8.00;;;;;;;14.79;60.93;97861.02;238549;1192;139872;-60
2022/09/17 20:43:47;;;;;;;12.20;7.50;;;;;;;14.75;61.02;97854.60;238653;1190;141190;-58
2022/09/17 20:48:51;;;;;;;12.60;7.20;;;;;;;14.69;60.83;97852.70;238650;1190;139437;-60
2022/09/17 20:53:55;;;;;;;10.80;6.70;;;;;;;14.67;61.15;97857.55;238588;1191;142791;-60
2022/09/17 20:59:17;;;;;;;12.50;8.10;;;;;;;14.73;61.32;97858.04;238399;1191;139628;-55
2022/09/17 21:04:20;;;;;;;9.40;7.60;;;;;;;14.77;61.19;97857.84;238423;1191;139935;-58
2022/09/17 21:09:24;;;;;;;14.40;9.00;;;;;;;14.76;61.21;97849.70;238363;1191;138874;-60
2022/09/17 21:14:27;;;;;;;11.90;9.00;;;;;;;14.73;61.20;97846.08;238586;1191;139344;-60
2022/09/17 21:19:29;;;;;;;11.30;9.40;;;;;;;14.66;61.17;97843.23;238347;1192;139176;-58
2022/09/17 21:24:32;;;;;;;11.70;9.20;;;;;;;14.60;61.29;97840.86;238386;1192;139988;-59
2022/09/17 21:29:35;;;;;;;12.40;9.50;;;;;;;14.55;61.18;97837.48;238606;1192;139377;-58
2022/09/17 21:34:38;;;;;;;14.90;9.60;;;;;;;14.51;61.22;97835.40;238691;1190;139513;-59
2022/09/17 21:39:41;;;;;;;14.30;10.00;;;;;;;14.53;61.30;97838.25;238709;1190;140028;-61
2022/09/17 21:44:44;;;;;;;11.70;9.10;;;;;;;14.57;61.56;97837.87;238706;1190;139807;-57
2022/09/17 21:49:47;;;;;;;13.00;9.20;;;;;;;14.60;61.56;97840.38;238502;1191;139098;-59
2022/09/17 21:54:50;;;;;;;13.60;9.50;;;;;;;14.64;61.45;97841.04;238780;1190;139475;-57
2022/09/17 21:59:53;;;;;;;15.10;9.00;;;;;;;14.60;61.40;97842.56;238856;1190;139452;-56
2022/09/17 22:04:56;;;;;;;14.70;8.90;;;;;;;14.54;61.43;97845.10;238766;1191;138642;-58
2022/09/17 22:09:59;;;;;;;12.20;9.20;;;;;;;14.49;61.32;97846.98;238544;1192;141475;-57
2022/09/17 22:15:03;;;;;;;13.00;8.90;;;;;;;14.42;61.34;97845.46;238673;1190;139119;-59
2022/09/17 22:20:06;;;;;;;12.50;8.10;;;;;;;14.31;61.25;97844.39;238840;1190;139459;-59
2022/09/17 22:25:09;;;;;;;10.00;7.10;;;;;;;14.26;61.35;97854.56;238770;1190;139610;-58
2022/09/17 22:30:12;;;;;;;12.80;6.80;;;;;;;14.25;61.36;97850.23;238774;1192;139909;-58
2022/09/17 22:35:15;;;;;;;8.00;6.50;;;;;;;14.27;61.60;97846.02;238487;1191;141621;-59
2022/09/17 22:40:18;;;;;;;9.30;5.70;;;;;;;14.28;61.51;97847.52;238767;1191;139750;-59
2022/09/17 22:45:21;;;;;;;11.80;5.50;;;;;;;14.25;61.60;97849.42;238733;1191;139775;-59
2022/09/17 22:50:24;;;;;;;7.70;5.50;;;;;;;14.24;61.49;97848.48;238745;1190;139692;-57
2022/09/17 22:55:27;;;;;;;8.10;5.40;;;;;;;14.23;61.52;97845.49;238450;1190;139313;-59
2022/09/17 23:00:30;;;;;;;10.30;4.50;;;;;;;14.20;61.53;97851.40;238669;1191;140965;-59
2022/09/17 23:05:33;;;;;;;7.00;4.20;;;;;;;14.19;61.37;97850.86;238664;1190;139035;-58
2022/09/17 23:10:36;;;;;;;5.10;3.40;;;;;;;14.17;61.38;97845.71;238675;1191;139450;-58
2022/09/17 23:15:38;;;;;;;6.00;3.20;;;;;;;14.13;61.46;97846.90;238459;1192;140467;-57
2022/09/17 23:20:41;;;;;;;5.70;3.20;;;;;;;14.12;61.66;97841.65;238514;1191;139188;-56
2022/09/17 23:25:44;;;;;;;5.50;3.10;;;;;;;14.12;61.45;97843.52;238714;1190;140948;-58
2022/09/17 23:30:47;;;;;;;6.40;3.30;;;;;;;14.17;61.71;97843.91;238788;1190;140313;-58
2022/09/17 23:35:50;;;;;;;4.60;2.90;;;;;;;14.17;61.90;97838.08;238725;1190;138872;-58